Aeroporto :
LOGIN :

Iscrizione | Disclaimer

   EN    FR    IT 

 










Sommario :    VFR   VFR Marginale   IFR   IFR Intensivo   IFR Molto Intensivo
Visibilità : 
Base nubi : 
>= 8 km
>= 3000ft
5 / 8 km
1000 / 3000 ft
1500m / 5 km
500 / 1000 ft
800 / 1500m
200 / 500 ft
< 800m
< 200 ft
Simboli :   Temporali  Nebbia  Neve Forte  Precipitazioni Forti  Vento > 20 kt
SIGMETs :   Varie  Temporali  Ghiacco  Turbolenza  Onda orograficha  Ceneri Vulcaniche







- Altitudine del aeroporto : 267 ft


EGDR - Culdrose Navy

ULTIMO METAR :
  • 200828Z 01008KT 9999 FEW022 13/08 Q1014 BLU TEMPO SCT015 WHT

METARs OBSOLETI :
  • 200750Z 01006KT 9999 FEW020 13/09 Q1014 BLU TEMPO SCT015 WHT
  • 200721Z 02007KT 9999 FEW018 13/10 Q1014 BLU TEMPO SCT015 WHT
  • 200650Z 33005KT 9999 FEW010 12/11 Q1014 BLU TEMPO SCT015 WHT
  • 200626Z 32004KT 9999 FEW009 10/10 Q1014 BLU TEMPO SCT015 WHT
  • 200550Z 00000KT 9999 MIFG FEW000 09/09 Q1013 BLU TEMPO SCT015 WHT

TAF TAF EGDR
Valido dal 20 a 09 ore il 20 a 18 ore UTC


200746Z 2009/2018 35010KT 9999 FEW020
TEMPO 2009/2012 SCT020
PROB40
TEMPO 2011/2016 4000 SHRA SCT008 BKN018TCU
Nessun NOTAM noto per questo aeroporto.
1 SIGMET conosciuto per la FIR London (EGTT) :
 
Temporali affogati
EGTT SIGMET 02 VALID 200845/201245 EGRR
EGTT LONDON FIR EMBD TS FCST WI N5500 E00500 - N5404 E00412 - N5348 E00231 - N5500 E00231 - N5500 E00500 TOP FL280 MOV NW 10KT NC=



MetMap, La meteo Aeronautica in un colpo d'occhio ! - Copyright ORBIFLY Dicembre 2007 - Disclaimer

ORBIFLY MET'MAP TEAM :

Programmazione e sviluppo : Alexandra Zaïnal
Concezione e sviluppo : Baudouin d'Aumeries
Co-Programmazione e sviluppo : Marc-Olivier Méhu
Supporto tecnico e logistico : Manuel Goepfert
Aiuto per la traduzione : Arnaldo La Scala

Contatto : metmap@orbifly.com




FONTI E CREDITI :

   NOAA